createdAt,value
2022-08-28T00:00:25.456Z,8.00
2022-08-28T00:02:52.615Z,7.10
2022-08-28T00:05:20.862Z,6.40
2022-08-28T00:07:48.061Z,7.00
2022-08-28T00:10:16.981Z,6.13
2022-08-28T00:12:45.302Z,7.10
2022-08-28T00:15:15.636Z,6.00
2022-08-28T00:17:42.337Z,5.95
2022-08-28T00:20:11.954Z,6.25
2022-08-28T00:22:39.738Z,5.45
2022-08-28T00:25:09.180Z,6.20
2022-08-28T00:28:04.928Z,5.50
2022-08-28T00:30:41.845Z,5.55
2022-08-28T00:33:16.188Z,5.35
2022-08-28T00:35:43.939Z,5.27
2022-08-28T00:38:12.428Z,5.47
2022-08-28T00:40:42.673Z,5.75
2022-08-28T00:43:22.192Z,6.05
2022-08-28T00:45:48.757Z,6.00
2022-08-28T00:48:15.407Z,5.75
2022-08-28T00:51:01.004Z,5.28
2022-08-28T00:55:59.438Z,4.97
2022-08-28T00:58:26.114Z,6.28
2022-08-28T01:00:52.697Z,5.60
2022-08-28T01:03:19.268Z,4.82
2022-08-28T01:05:51.826Z,4.90
2022-08-28T01:08:18.710Z,5.55
2022-08-28T01:10:50.384Z,4.68
2022-08-28T01:13:18.174Z,4.80
2022-08-28T01:15:45.693Z,5.20
2022-08-28T01:18:15.948Z,5.05
2022-08-28T01:20:54.913Z,4.70
2022-08-28T01:23:39.626Z,4.55
2022-08-28T01:26:10.923Z,4.70
2022-08-28T01:28:39.330Z,4.85
2022-08-28T01:31:06.309Z,4.20
2022-08-28T01:33:33.975Z,4.72
2022-08-28T01:36:00.817Z,4.18
2022-08-28T01:38:28.062Z,4.15
2022-08-28T01:40:57.887Z,4.03
2022-08-28T01:43:31.470Z,3.88
2022-08-28T01:46:04.437Z,3.78
2022-08-28T01:48:35.910Z,4.40
2022-08-28T01:51:03.882Z,3.97
2022-08-28T01:53:32.593Z,3.90
2022-08-28T01:56:01.433Z,3.60
2022-08-28T01:58:28.959Z,3.40
2022-08-28T02:00:57.522Z,3.53
2022-08-28T02:03:24.584Z,3.92
2022-08-28T02:05:52.355Z,4.05
2022-08-28T02:08:19.330Z,3.50
2022-08-28T02:10:46.218Z,3.30
2022-08-28T02:13:13.538Z,3.53
2022-08-28T02:15:42.920Z,3.95
2022-08-28T02:18:10.557Z,3.38
2022-08-28T02:20:37.962Z,3.50
2022-08-28T02:23:04.876Z,3.97
2022-08-28T02:25:31.506Z,3.80
2022-08-28T02:27:58.156Z,4.55
2022-08-28T02:30:24.951Z,4.38
2022-08-28T02:32:52.264Z,4.05
2022-08-28T02:35:21.029Z,4.70
2022-08-28T02:37:48.162Z,4.10
2022-08-28T02:40:17.832Z,3.90
2022-08-28T02:42:45.293Z,4.05
2022-08-28T02:45:13.689Z,3.63
2022-08-28T02:47:42.616Z,3.80
2022-08-28T02:50:13.151Z,4.47
2022-08-28T02:52:40.744Z,4.00
2022-08-28T02:55:09.316Z,3.83
2022-08-28T02:57:36.017Z,4.20
2022-08-28T03:00:06.256Z,4.05
2022-08-28T03:02:32.896Z,4.35
2022-08-28T03:05:00.549Z,3.97
2022-08-28T03:07:29.383Z,4.18
2022-08-28T03:09:56.199Z,4.45
2022-08-28T03:12:25.867Z,4.97
2022-08-28T03:14:53.370Z,4.18
2022-08-28T03:17:20.587Z,4.88
2022-08-28T03:19:47.241Z,5.18
2022-08-28T03:22:13.850Z,4.85
2022-08-28T03:24:41.474Z,4.45
2022-08-28T03:27:09.040Z,4.78
2022-08-28T03:29:35.797Z,4.85
2022-08-28T03:32:02.708Z,4.97
2022-08-28T03:34:29.279Z,4.55
2022-08-28T03:36:55.837Z,4.97
2022-08-28T03:39:22.390Z,5.07
2022-08-28T03:41:48.994Z,5.50
2022-08-28T03:44:15.880Z,5.32
2022-08-28T03:46:43.136Z,5.32
2022-08-28T03:49:09.727Z,5.32
2022-08-28T03:51:36.354Z,5.68
2022-08-28T03:54:04.094Z,6.85
2022-08-28T03:56:31.078Z,5.25
2022-08-28T03:59:00.986Z,5.28
2022-08-28T04:01:28.148Z,5.63
2022-08-28T04:03:56.010Z,6.63
2022-08-28T04:06:23.044Z,7.10
2022-08-28T04:08:51.131Z,6.07
2022-08-28T04:11:18.361Z,6.00
2022-08-28T04:13:45.312Z,5.70
2022-08-28T04:16:16.748Z,6.38
2022-08-28T04:18:43.514Z,6.35
2022-08-28T04:21:19.207Z,6.03
2022-08-28T04:23:47.422Z,6.00
2022-08-28T04:26:17.810Z,6.00
2022-08-28T04:28:45.041Z,6.45
2022-08-28T04:31:11.702Z,6.93
2022-08-28T04:33:39.236Z,6.78
2022-08-28T04:36:09.302Z,6.60
2022-08-28T04:38:40.325Z,6.15
2022-08-28T04:41:13.733Z,6.18
2022-08-28T04:43:40.323Z,7.22
2022-08-28T04:46:09.134Z,6.40
2022-08-28T04:48:36.465Z,6.90
2022-08-28T04:51:05.714Z,6.07
2022-08-28T04:53:33.106Z,6.38
2022-08-28T04:56:00.746Z,5.72
2022-08-28T04:58:27.923Z,5.38
2022-08-28T05:00:55.244Z,5.60
2022-08-28T05:03:22.732Z,5.80
2022-08-28T05:05:53.043Z,6.53
2022-08-28T05:08:22.246Z,5.95
2022-08-28T05:10:50.940Z,8.07
2022-08-28T05:13:18.616Z,5.78
2022-08-28T05:15:48.778Z,5.57
2022-08-28T05:18:16.986Z,5.80
2022-08-28T05:20:46.547Z,6.25
2022-08-28T05:23:14.938Z,6.15
2022-08-28T05:25:44.161Z,6.32
2022-08-28T05:28:12.535Z,5.82
2022-08-28T05:30:40.914Z,5.95
2022-08-28T05:33:09.444Z,5.20
2022-08-28T05:35:38.701Z,5.07
2022-08-28T05:38:06.639Z,5.68
2022-08-28T05:40:34.189Z,5.53
2022-08-28T05:43:00.811Z,5.05
2022-08-28T05:45:27.388Z,5.38
2022-08-28T05:47:54.098Z,5.28
2022-08-28T05:50:20.759Z,5.28
2022-08-28T05:52:47.522Z,4.93
2022-08-28T05:55:14.517Z,6.10
2022-08-28T05:57:41.662Z,5.05
2022-08-28T06:00:13.020Z,4.80
2022-08-28T06:02:41.003Z,4.75
2022-08-28T06:05:08.879Z,5.40
2022-08-28T06:07:39.276Z,4.88
2022-08-28T06:10:07.503Z,4.53
2022-08-28T06:12:37.433Z,4.68
2022-08-28T06:15:04.327Z,5.03
2022-08-28T06:17:31.130Z,4.60
2022-08-28T06:19:57.767Z,4.00
2022-08-28T06:22:24.369Z,4.25
2022-08-28T06:24:50.946Z,3.97
2022-08-28T06:27:17.761Z,4.03
2022-08-28T06:29:44.764Z,4.28
2022-08-28T06:32:11.530Z,3.50
2022-08-28T06:34:38.317Z,2.80
2022-08-28T06:37:05.019Z,2.90
2022-08-28T06:39:31.588Z,2.47
2022-08-28T06:41:58.289Z,2.60
2022-08-28T06:44:25.000Z,2.40
2022-08-28T06:46:53.743Z,2.58
2022-08-28T06:49:20.539Z,2.53
2022-08-28T06:51:47.203Z,2.15
2022-08-28T06:54:19.802Z,2.42
2022-08-28T06:56:49.486Z,2.03
2022-08-28T06:59:16.039Z,1.60
2022-08-28T07:01:42.674Z,1.60
2022-08-28T07:04:11.222Z,1.60
2022-08-28T07:06:40.967Z,1.65
2022-08-28T07:09:11.129Z,1.60
2022-08-28T07:11:39.295Z,1.83
2022-08-28T07:14:06.843Z,1.40
2022-08-28T07:16:38.222Z,1.30
2022-08-28T07:19:06.868Z,1.45
2022-08-28T07:21:39.019Z,1.60
2022-08-28T07:24:06.802Z,1.60
2022-08-28T07:26:33.563Z,1.40
2022-08-28T07:29:10.905Z,2.08
2022-08-28T07:31:41.076Z,1.50
2022-08-28T07:34:08.451Z,1.08
2022-08-28T07:36:36.015Z,1.20
2022-08-28T07:39:02.695Z,1.23
2022-08-28T07:41:31.660Z,1.10
2022-08-28T07:44:17.346Z,1.38
2022-08-28T07:46:44.911Z,1.10
2022-08-28T07:49:12.760Z,1.33
2022-08-28T07:51:39.464Z,1.00
2022-08-28T07:54:06.161Z,1.38
2022-08-28T07:56:40.773Z,0.95
2022-08-28T07:59:09.231Z,1.58
2022-08-28T08:01:39.530Z,1.40
2022-08-28T08:04:07.691Z,1.30
2022-08-28T08:06:35.367Z,2.03
2022-08-28T08:09:04.467Z,1.75
2022-08-28T08:11:32.460Z,2.10
2022-08-28T08:14:04.733Z,1.60
2022-08-28T08:16:39.576Z,1.80
2022-08-28T08:19:09.914Z,1.17
2022-08-28T08:21:37.671Z,1.70
2022-08-28T08:24:04.549Z,1.75
2022-08-28T08:26:31.260Z,1.20
2022-08-28T08:28:58.990Z,1.40
2022-08-28T08:31:35.217Z,1.10
2022-08-28T08:34:04.120Z,1.35
2022-08-28T08:36:33.323Z,1.20
2022-08-28T08:39:00.791Z,1.30
2022-08-28T08:41:33.451Z,1.17
2022-08-28T08:44:00.377Z,1.38
2022-08-28T08:46:34.534Z,1.40
2022-08-28T08:49:05.155Z,1.15
2022-08-28T08:51:43.927Z,1.20
2022-08-28T08:54:15.736Z,1.10
2022-08-28T08:56:44.783Z,1.20
2022-08-28T08:59:17.573Z,1.40
2022-08-28T09:01:55.360Z,1.65
2022-08-28T09:04:46.470Z,1.42
2022-08-28T09:07:16.094Z,1.67
2022-08-28T09:09:48.138Z,1.48
2022-08-28T09:12:18.135Z,1.67
2022-08-28T09:14:57.577Z,1.70
2022-08-28T09:17:30.818Z,1.95
2022-08-28T09:19:57.867Z,1.92
2022-08-28T09:22:24.430Z,1.92
2022-08-28T09:24:51.950Z,1.85
2022-08-28T09:27:28.559Z,1.73
2022-08-28T09:30:08.521Z,1.67
2022-08-28T09:32:56.348Z,2.10
2022-08-28T09:35:29.107Z,1.60
2022-08-28T09:37:57.045Z,2.00
2022-08-28T09:40:27.221Z,2.38
2022-08-28T09:43:28.147Z,1.70
2022-08-28T09:45:58.387Z,2.58
2022-08-28T09:48:38.503Z,2.53
2022-08-28T09:51:10.994Z,2.45
2022-08-28T09:54:09.594Z,2.30
2022-08-28T09:56:42.134Z,2.22
2022-08-28T09:59:21.053Z,2.13
2022-08-28T10:02:15.455Z,2.40
2022-08-28T10:04:57.902Z,2.35
2022-08-28T10:07:24.441Z,2.75
2022-08-28T10:10:26.430Z,2.60
2022-08-28T10:13:15.556Z,2.30
2022-08-28T10:16:09.703Z,2.15
2022-08-28T10:19:16.679Z,2.22
2022-08-28T10:22:01.270Z,2.58
2022-08-28T10:24:43.448Z,2.25
2022-08-28T10:27:25.577Z,1.58
2022-08-28T10:30:08.909Z,1.20
2022-08-28T10:35:13.758Z,1.58
2022-08-28T10:38:11.746Z,1.42
2022-08-28T10:40:46.642Z,1.85
2022-08-28T10:43:23.426Z,1.40
2022-08-28T10:45:51.823Z,1.55
2022-08-28T10:48:32.076Z,2.00
2022-08-28T10:51:07.347Z,2.17
2022-08-28T10:56:43.178Z,2.15
2022-08-28T10:59:10.234Z,2.40
2022-08-28T11:01:40.085Z,3.08
2022-08-28T11:04:20.774Z,2.30
2022-08-28T11:06:56.396Z,2.50
2022-08-28T11:09:48.401Z,2.72
2022-08-28T11:12:18.522Z,2.85
2022-08-28T11:14:48.913Z,2.90
2022-08-28T11:17:33.463Z,2.88
2022-08-28T11:20:15.397Z,3.55
2022-08-28T11:22:48.876Z,2.85
2022-08-28T11:25:26.258Z,2.60
2022-08-28T11:28:12.194Z,2.28
2022-08-28T11:30:38.927Z,2.10
2022-08-28T11:33:09.723Z,2.10
2022-08-28T11:35:43.702Z,1.80
2022-08-28T11:38:11.415Z,2.00
2022-08-28T11:40:44.177Z,2.00
2022-08-28T11:43:17.095Z,2.00
2022-08-28T11:45:46.759Z,2.30
2022-08-28T11:48:23.419Z,2.50
2022-08-28T11:50:57.178Z,2.45
2022-08-28T11:53:48.020Z,2.17
2022-08-28T11:56:51.792Z,2.13
2022-08-28T11:59:40.291Z,2.17
2022-08-28T12:02:41.230Z,2.00
2022-08-28T12:05:15.574Z,1.80
2022-08-28T12:07:43.891Z,1.80
2022-08-28T12:10:22.448Z,1.60
2022-08-28T12:12:53.464Z,1.60
2022-08-28T12:15:28.851Z,1.40
2022-08-28T12:17:58.759Z,1.20
2022-08-28T12:20:53.723Z,1.63
2022-08-28T12:23:43.526Z,1.15
2022-08-28T12:26:41.914Z,1.20
2022-08-28T12:29:29.713Z,2.25
2022-08-28T12:32:25.388Z,1.65
2022-08-28T12:34:57.910Z,1.60
2022-08-28T12:37:52.335Z,1.58
2022-08-28T12:40:23.545Z,1.50
2022-08-28T12:43:02.431Z,1.65
2022-08-28T12:45:39.800Z,2.28
2022-08-28T12:48:26.402Z,1.80
2022-08-28T12:51:14.735Z,1.70
2022-08-28T12:53:47.213Z,1.80
2022-08-28T12:56:17.655Z,1.85
2022-08-28T12:58:46.023Z,2.30
2022-08-28T13:01:21.577Z,2.25
2022-08-28T13:03:52.051Z,1.85
2022-08-28T13:06:25.825Z,2.00
2022-08-28T13:09:00.975Z,2.13
2022-08-28T13:11:35.378Z,2.35
2022-08-28T13:14:04.338Z,1.60
2022-08-28T13:16:49.741Z,1.60
2022-08-28T13:19:27.156Z,1.70
2022-08-28T13:22:09.361Z,1.50
2022-08-28T13:24:35.849Z,1.00
2022-08-28T13:27:16.787Z,1.50
2022-08-28T13:29:59.984Z,1.20
2022-08-28T13:32:29.024Z,1.40
2022-08-28T13:35:03.892Z,1.50
2022-08-28T13:37:48.710Z,1.00
2022-08-28T13:40:46.002Z,1.08
2022-08-28T13:43:08.240Z,1.30
2022-08-28T13:45:43.156Z,0.88
2022-08-28T13:48:12.274Z,1.55
2022-08-28T13:50:42.336Z,1.20
2022-08-28T13:53:12.713Z,1.88
2022-08-28T13:55:39.475Z,1.80
2022-08-28T13:58:06.268Z,1.63
2022-08-28T14:00:36.300Z,1.85
2022-08-28T14:03:21.231Z,2.40
2022-08-28T14:05:48.176Z,1.95
2022-08-28T14:08:14.757Z,2.75
2022-08-28T14:10:41.322Z,2.83
2022-08-28T14:13:08.102Z,2.88
2022-08-28T14:15:34.674Z,3.00
2022-08-28T14:18:01.739Z,2.60
2022-08-28T14:20:29.055Z,3.05
2022-08-28T14:22:55.631Z,2.50
2022-08-28T14:25:22.259Z,2.42
2022-08-28T14:27:49.008Z,2.60
2022-08-28T14:30:16.463Z,2.60
2022-08-28T14:32:43.067Z,2.95
2022-08-28T14:35:09.805Z,2.67
2022-08-28T14:37:36.406Z,2.38
2022-08-28T14:40:04.946Z,2.85
2022-08-28T14:42:31.518Z,2.53
2022-08-28T14:44:58.087Z,2.35
2022-08-28T14:47:25.024Z,2.30
2022-08-28T14:49:51.642Z,2.55
2022-08-28T14:52:19.530Z,2.35
2022-08-28T14:54:46.169Z,2.60
2022-08-28T14:57:13.676Z,2.10
2022-08-28T14:59:41.652Z,2.30
2022-08-28T15:02:08.274Z,2.40
2022-08-28T15:04:37.710Z,2.25
2022-08-28T15:07:08.038Z,2.20
2022-08-28T15:09:36.847Z,1.83
2022-08-28T15:12:03.975Z,1.98
2022-08-28T15:14:30.583Z,2.25
2022-08-28T15:16:57.321Z,1.90
2022-08-28T15:19:24.171Z,2.20
2022-08-28T15:21:53.129Z,2.22
2022-08-28T15:24:22.056Z,2.05
2022-08-28T15:26:49.035Z,1.85
2022-08-28T15:29:16.568Z,1.95
2022-08-28T15:31:46.073Z,1.85
2022-08-28T15:34:19.914Z,2.10
2022-08-28T15:36:54.824Z,2.10
2022-08-28T15:39:41.331Z,2.00
2022-08-28T15:42:09.936Z,2.35
2022-08-28T15:44:37.435Z,2.28
2022-08-28T15:47:05.054Z,2.00
2022-08-28T15:49:38.925Z,1.90
2022-08-28T15:52:13.752Z,2.13
2022-08-28T15:54:41.348Z,1.90
2022-08-28T15:57:07.982Z,1.60
2022-08-28T15:59:49.129Z,1.83
2022-08-28T16:02:18.297Z,1.83
2022-08-28T16:04:44.966Z,2.08
2022-08-28T16:07:11.661Z,2.20
2022-08-28T16:09:38.321Z,1.70
2022-08-28T16:12:05.099Z,1.77
2022-08-28T16:14:32.888Z,1.45
2022-08-28T16:16:59.744Z,1.77
2022-08-28T16:19:32.702Z,1.73
2022-08-28T16:21:59.258Z,1.73
2022-08-28T16:24:26.168Z,1.80
2022-08-28T16:26:52.736Z,1.77
2022-08-28T16:29:19.610Z,1.70
2022-08-28T16:31:48.048Z,2.08
2022-08-28T16:34:15.667Z,1.60
2022-08-28T16:36:48.308Z,1.83
2022-08-28T16:39:15.172Z,1.90
2022-08-28T16:41:42.228Z,1.65
2022-08-28T16:44:09.149Z,1.90
2022-08-28T16:46:35.743Z,1.90
2022-08-28T16:49:02.643Z,1.90
2022-08-28T16:51:29.851Z,1.55
2022-08-28T16:53:56.941Z,1.70
2022-08-28T16:56:26.695Z,2.00
2022-08-28T16:58:53.478Z,2.00
2022-08-28T17:01:23.924Z,1.73
2022-08-28T17:03:54.762Z,1.65
2022-08-28T17:06:29.443Z,1.80
2022-08-28T17:08:57.379Z,2.30
2022-08-28T17:11:26.115Z,2.72
2022-08-28T17:13:52.763Z,1.65
2022-08-28T17:16:20.527Z,1.60
2022-08-28T17:18:51.979Z,1.98
2022-08-28T17:21:38.795Z,1.85
2022-08-28T17:24:05.788Z,2.25
2022-08-28T17:26:32.350Z,1.30
2022-08-28T17:28:58.935Z,1.50
2022-08-28T17:31:25.613Z,1.60
2022-08-28T17:33:52.278Z,1.77
2022-08-28T17:36:33.458Z,1.73
2022-08-28T17:39:03.057Z,1.65
2022-08-28T17:41:29.759Z,1.77
2022-08-28T17:43:56.365Z,1.92
2022-08-28T17:46:22.981Z,1.40
2022-08-28T17:48:56.036Z,1.75
2022-08-28T17:51:40.386Z,1.65
2022-08-28T17:54:11.734Z,1.67
2022-08-28T17:56:38.340Z,1.50
2022-08-28T17:59:05.130Z,1.65
2022-08-28T18:01:31.791Z,1.60
2022-08-28T18:03:58.614Z,1.50
2022-08-28T18:06:25.215Z,2.15
2022-08-28T18:08:51.983Z,1.52
2022-08-28T18:11:19.390Z,1.58
2022-08-28T18:13:46.706Z,1.50
2022-08-28T18:16:13.513Z,1.45
2022-08-28T18:18:40.647Z,1.70
2022-08-28T18:21:09.142Z,1.10
2022-08-28T18:23:35.914Z,1.10
2022-08-28T18:26:02.558Z,1.23
2022-08-28T18:28:29.291Z,2.00
2022-08-28T18:30:56.054Z,1.30
2022-08-28T18:33:23.826Z,1.17
2022-08-28T18:35:51.962Z,1.00
2022-08-28T18:38:20.225Z,1.10
2022-08-28T18:40:47.127Z,1.02
2022-08-28T18:43:14.008Z,0.85
2022-08-28T18:45:40.691Z,0.82
2022-08-28T18:48:10.162Z,0.98
2022-08-28T18:50:37.178Z,1.38
2022-08-28T18:53:05.547Z,1.10
2022-08-28T18:55:33.486Z,1.30
2022-08-28T18:58:02.175Z,1.15
2022-08-28T19:00:29.778Z,1.00
2022-08-28T19:02:57.204Z,0.90
2022-08-28T19:05:24.398Z,1.02
2022-08-28T19:07:51.309Z,1.23
2022-08-28T19:10:32.627Z,1.10
2022-08-28T19:13:01.149Z,0.95
2022-08-28T19:15:28.524Z,1.10
2022-08-28T19:17:55.487Z,0.77
2022-08-28T19:20:22.114Z,1.10
2022-08-28T19:22:48.933Z,1.13
2022-08-28T19:25:27.786Z,1.00
2022-08-28T19:27:59.639Z,1.45
2022-08-28T19:30:28.609Z,1.65
2022-08-28T19:32:55.594Z,0.90
2022-08-28T19:35:24.613Z,0.90
2022-08-28T19:37:52.340Z,1.08
2022-08-28T19:40:20.723Z,0.73
2022-08-28T19:42:47.871Z,1.27
2022-08-28T19:45:15.216Z,1.20
2022-08-28T19:47:42.163Z,1.20
2022-08-28T19:50:11.823Z,0.70
2022-08-28T19:52:38.697Z,1.83
2022-08-28T19:55:06.646Z,0.60
2022-08-28T19:57:34.330Z,0.95
2022-08-28T20:00:02.117Z,0.57
2022-08-28T20:02:29.763Z,1.17
2022-08-28T20:04:56.529Z,1.23
2022-08-28T20:07:25.003Z,1.27
2022-08-28T20:09:52.263Z,0.63
2022-08-28T20:12:19.798Z,0.75
2022-08-28T20:14:46.627Z,0.60
2022-08-28T20:17:14.014Z,0.80
2022-08-28T20:19:41.293Z,1.00
2022-08-28T20:22:08.161Z,0.68
2022-08-28T20:24:35.041Z,0.90
2022-08-28T20:27:01.732Z,0.73
2022-08-28T20:29:28.520Z,0.75
2022-08-28T20:31:55.079Z,1.13
2022-08-28T20:34:22.250Z,1.15
2022-08-28T20:36:49.651Z,0.80
2022-08-28T20:39:16.570Z,0.82
2022-08-28T20:41:44.521Z,0.85
2022-08-28T20:44:12.917Z,0.90
2022-08-28T20:46:41.831Z,1.08
2022-08-28T20:49:12.843Z,0.90
2022-08-28T20:51:59.162Z,0.65
2022-08-28T20:54:31.708Z,0.80
2022-08-28T20:57:00.409Z,1.00
2022-08-28T20:59:28.926Z,1.00
2022-08-28T21:02:05.402Z,1.17
2022-08-28T21:04:35.278Z,0.80
2022-08-28T21:07:02.904Z,0.98
2022-08-28T21:09:42.380Z,1.20
2022-08-28T21:12:16.744Z,1.30
2022-08-28T21:14:45.563Z,1.00
2022-08-28T21:17:28.822Z,1.45
2022-08-28T21:19:57.267Z,0.90
2022-08-28T21:22:23.950Z,1.10
2022-08-28T21:24:50.523Z,1.05
2022-08-28T21:27:18.616Z,1.02
2022-08-28T21:29:46.047Z,1.10
2022-08-28T21:32:12.902Z,1.23
2022-08-28T21:34:39.504Z,1.00
2022-08-28T21:37:06.498Z,1.33
2022-08-28T21:39:33.306Z,1.20
2022-08-28T21:41:59.874Z,1.05
2022-08-28T21:44:26.467Z,1.30
2022-08-28T21:46:53.283Z,1.45
2022-08-28T21:49:20.456Z,1.20
2022-08-28T21:51:47.144Z,1.20
2022-08-28T21:54:14.245Z,1.30
2022-08-28T21:56:40.854Z,1.35
2022-08-28T21:59:07.432Z,2.25
2022-08-28T22:01:34.347Z,1.00
2022-08-28T22:04:00.990Z,1.30
2022-08-28T22:06:27.671Z,1.20
2022-08-28T22:08:55.124Z,1.30
2022-08-28T22:11:25.193Z,1.00
2022-08-28T22:13:53.248Z,1.35
2022-08-28T22:16:20.655Z,1.20
2022-08-28T22:18:47.750Z,1.10
2022-08-28T22:21:36.461Z,1.13
2022-08-28T22:24:04.151Z,1.10
2022-08-28T22:26:31.000Z,1.25
2022-08-28T22:28:57.702Z,1.17
2022-08-28T22:31:24.873Z,1.13
2022-08-28T22:33:52.524Z,1.35
2022-08-28T22:36:20.402Z,1.20
2022-08-28T22:38:53.198Z,1.13
2022-08-28T22:41:20.687Z,1.30
2022-08-28T22:43:51.558Z,1.30
2022-08-28T22:46:20.647Z,1.40
2022-08-28T22:48:47.966Z,1.40
2022-08-28T22:51:18.543Z,1.20
2022-08-28T22:53:46.780Z,1.25
2022-08-28T22:56:13.978Z,0.68
2022-08-28T22:58:40.915Z,1.40
2022-08-28T23:01:17.709Z,1.20
2022-08-28T23:03:45.099Z,1.27
2022-08-28T23:06:12.212Z,1.23
2022-08-28T23:08:38.847Z,1.40
2022-08-28T23:11:06.382Z,1.20
2022-08-28T23:13:33.314Z,1.10
2022-08-28T23:16:01.451Z,1.25
2022-08-28T23:18:29.478Z,1.33
2022-08-28T23:20:56.760Z,1.27
2022-08-28T23:23:24.530Z,1.65
2022-08-28T23:25:51.367Z,1.15
2022-08-28T23:28:19.718Z,1.65
2022-08-28T23:30:49.528Z,1.60
2022-08-28T23:33:23.834Z,1.50
2022-08-28T23:35:51.522Z,2.28
2022-08-28T23:38:18.135Z,1.38
2022-08-28T23:40:44.843Z,1.63
2022-08-28T23:43:11.860Z,1.08
2022-08-28T23:45:42.142Z,1.30
2022-08-28T23:48:09.164Z,1.27
2022-08-28T23:50:36.211Z,1.30
2022-08-28T23:53:04.560Z,1.33
2022-08-28T23:55:31.573Z,1.17
2022-08-28T23:58:00.182Z,1.30
